Time;durP1;ratioP1;P1;durP2;ratioP2;P2;SDS_P1;SDS_P2;PMS_P1;PMS_P2;Temp;Humidity;BMP_temperature;BMP_pressure;BME280_temperature;BME280_humidity;BME280_pressure;Samples;Min_cycle;Max_cycle;Signal;HPM_P1;HPM_P2
2022/07/14 00:01:23;;;;;;;;;11.25;10.75;;;;;;;;6488008;46;8856;-57
2022/07/14 00:07:25;;;;;;;;;12.33;10.00;;;;;;;;6488934;31;8951;-57
2022/07/14 00:13:30;;;;;;;;;12.67;10.00;;;;;;;;6488786;39;8869;-58
2022/07/14 00:19:32;;;;;;;;;9.67;8.00;;;;;;;;6487954;46;8895;-58
2022/07/14 00:25:38;;;;;;;;;9.33;9.33;;;;;;;;6487576;31;9036;-58
2022/07/14 00:31:41;;;;;;;;;9.33;9.00;;;;;;;;6487784;39;8875;-58
2022/07/14 00:37:45;;;;;;;;;10.00;8.00;;;;;;;;6488414;31;9056;-59
2022/07/14 00:43:47;;;;;;;;;9.33;9.33;;;;;;;;6488289;39;9036;-57
2022/07/14 00:49:55;;;;;;;;;10.00;9.33;;;;;;;;6487799;39;9564;-59
2022/07/14 00:55:57;;;;;;;;;9.33;9.00;;;;;;;;6488494;31;9013;-58
2022/07/14 01:02:01;;;;;;;;;8.00;8.00;;;;;;;;6487223;46;8924;-58
2022/07/14 01:08:05;;;;;;;;;7.50;7.50;;;;;;;;6307183;31;10001347;-58
2022/07/14 01:14:07;;;;;;;;;8.67;8.67;;;;;;;;6488099;39;8876;-58
2022/07/14 01:20:11;;;;;;;;;6.00;6.00;;;;;;;;6487315;39;8891;-58
2022/07/14 01:26:13;;;;;;;;;5.33;5.33;;;;;;;;6487141;39;8880;-57
2022/07/14 01:32:18;;;;;;;;;7.33;7.33;;;;;;;;6487369;39;8911;-58
2022/07/14 01:38:20;;;;;;;;;9.00;8.67;;;;;;;;6487566;31;8889;-58
2022/07/14 01:44:23;;;;;;;;;6.33;6.33;;;;;;;;6487945;31;8895;-58
2022/07/14 01:50:26;;;;;;;;;11.67;9.33;;;;;;;;6487086;46;8853;-58
2022/07/14 01:56:28;;;;;;;;;9.33;8.67;;;;;;;;6486820;39;8925;-59
2022/07/14 02:02:31;;;;;;;;;11.67;10.33;;;;;;;;6486463;39;8849;-57
2022/07/14 04:16:44;;;;;;;;;12.00;12.00;;;;;;;;6498556;38;14918;-64
2022/07/14 04:22:49;;;;;;;;;13.67;13.67;;;;;;;;6491542;46;8903;-63
2022/07/14 04:28:53;;;;;;;;;15.00;13.33;;;;;;;;6492342;46;8884;-64
2022/07/14 04:34:55;;;;;;;;;15.33;14.00;;;;;;;;6489221;39;8968;-63
2022/07/14 04:41:00;;;;;;;;;17.67;15.33;;;;;;;;6492246;39;9031;-63
2022/07/14 04:47:05;;;;;;;;;15.67;15.00;;;;;;;;6492484;39;9059;-63
2022/07/14 04:53:10;;;;;;;;;15.67;14.67;;;;;;;;6491584;39;8889;-64
2022/07/14 04:59:19;;;;;;;;;11.33;11.33;;;;;;;;6492231;39;8835;-65
2022/07/14 05:05:22;;;;;;;;;10.33;10.33;;;;;;;;6491695;39;9027;-65
2022/07/14 05:11:29;;;;;;;;;13.67;12.67;;;;;;;;6492502;31;9575;-65
2022/07/14 05:17:33;;;;;;;;;15.67;13.33;;;;;;;;6491909;31;8891;-65
2022/07/14 05:23:41;;;;;;;;;13.00;13.00;;;;;;;;6491711;39;8876;-64
2022/07/14 05:29:44;;;;;;;;;16.33;15.00;;;;;;;;6491597;31;8908;-65
2022/07/14 05:35:48;;;;;;;;;14.25;14.00;;;;;;;;6492341;31;8864;-64
2022/07/14 05:41:51;;;;;;;;;14.00;12.25;;;;;;;;6495818;39;9631;-67
2022/07/14 05:48:00;;;;;;;;;14.00;12.00;;;;;;;;6491592;46;8901;-64
2022/07/14 05:54:09;;;;;;;;;12.25;11.75;;;;;;;;6491044;36;8848;-64
2022/07/14 06:00:15;;;;;;;;;10.25;9.50;;;;;;;;6491195;39;8954;-65
2022/07/14 06:06:25;;;;;;;;;11.25;10.50;;;;;;;;6490879;31;9963;-62
2022/07/14 06:12:28;;;;;;;;;13.00;13.00;;;;;;;;6490732;39;9526;-63
2022/07/14 06:18:36;;;;;;;;;13.25;12.25;;;;;;;;6490117;39;8937;-63
2022/07/14 06:24:48;;;;;;;;;11.75;10.25;;;;;;;;6489537;31;8865;-64
2022/07/14 06:30:59;;;;;;;;;12.25;12.25;;;;;;;;6490320;31;8902;-63
2022/07/14 06:37:03;;;;;;;;;11.75;10.75;;;;;;;;6489409;46;8894;-63
2022/07/14 06:43:07;;;;;;;;;13.50;13.00;;;;;;;;6489407;46;8938;-63
2022/07/14 06:49:34;;;;;;;;;11.75;10.50;;;;;;;;6489885;31;9008;-63
2022/07/14 06:55:36;;;;;;;;;9.75;9.75;;;;;;;;6489746;31;8994;-64
2022/07/14 07:01:42;;;;;;;;;8.50;8.25;;;;;;;;6488855;46;8941;-63
2022/07/14 07:07:49;;;;;;;;;7.00;7.00;;;;;;;;6487632;31;8931;-62
2022/07/14 07:13:56;;;;;;;;;8.75;8.25;;;;;;;;6489870;39;8931;-64
2022/07/14 07:20:01;;;;;;;;;7.50;7.50;;;;;;;;6486997;39;8882;-63
2022/07/14 07:26:10;;;;;;;;;5.75;5.75;;;;;;;;6489778;31;8821;-65
2022/07/14 07:32:17;;;;;;;;;9.50;7.75;;;;;;;;6487159;31;8992;-64
2022/07/14 07:38:25;;;;;;;;;9.50;9.25;;;;;;;;6488031;47;9011;-62
2022/07/14 07:44:30;;;;;;;;;7.25;7.25;;;;;;;;6490134;47;8872;-63
2022/07/14 07:50:34;;;;;;;;;7.75;7.75;;;;;;;;6489386;39;8971;-63
2022/07/14 07:56:41;;;;;;;;;6.50;5.00;;;;;;;;6489647;46;8921;-62
2022/07/14 08:02:52;;;;;;;;;6.25;6.25;;;;;;;;6492534;39;8866;-62
2022/07/14 08:08:59;;;;;;;;;6.00;6.00;;;;;;;;6489482;46;9002;-62
2022/07/14 08:15:05;;;;;;;;;5.25;5.25;;;;;;;;6486425;39;8898;-63
2022/07/14 08:21:09;;;;;;;;;2.00;2.00;;;;;;;;6489362;46;8931;-63
2022/07/14 08:27:13;;;;;;;;;4.25;4.25;;;;;;;;6490646;46;8879;-61
2022/07/14 08:33:16;;;;;;;;;8.25;8.25;;;;;;;;6491324;31;9024;-61
2022/07/14 08:39:22;;;;;;;;;10.75;10.25;;;;;;;;6490938;39;9920;-63
2022/07/14 08:45:26;;;;;;;;;3.25;3.25;;;;;;;;6490921;39;8958;-62
2022/07/14 08:51:35;;;;;;;;;6.75;5.25;;;;;;;;6491138;31;8904;-63
2022/07/14 08:57:51;;;;;;;;;6.50;6.25;;;;;;;;6488508;31;9035;-61
2022/07/14 09:03:54;;;;;;;;;4.75;4.75;;;;;;;;6490679;39;8911;-61
2022/07/14 09:10:17;;;;;;;;;4.00;4.00;;;;;;;;6489643;31;8952;-63
2022/07/14 09:16:22;;;;;;;;;5.25;5.25;;;;;;;;6491432;46;8829;-62
2022/07/14 09:22:32;;;;;;;;;4.00;4.00;;;;;;;;6490644;39;8888;-62
2022/07/14 09:28:45;;;;;;;;;5.25;5.25;;;;;;;;6490742;46;8955;-62
2022/07/14 09:35:00;;;;;;;;;3.25;3.25;;;;;;;;6491116;31;9044;-62
2022/07/14 09:41:14;;;;;;;;;4.50;4.50;;;;;;;;6489038;46;8905;-62
2022/07/14 09:47:19;;;;;;;;;5.00;5.00;;;;;;;;6490681;39;9625;-62
2022/07/14 09:53:28;;;;;;;;;6.75;5.75;;;;;;;;6487830;31;8961;-62
2022/07/14 10:00:18;;;;;;;;;5.25;5.25;;;;;;;;6489155;31;8938;-63
2022/07/14 10:06:26;;;;;;;;;4.50;4.50;;;;;;;;6489710;39;8963;-62
2022/07/14 10:12:38;;;;;;;;;5.25;5.25;;;;;;;;6489691;39;8874;-63
2022/07/14 10:18:45;;;;;;;;;4.00;3.50;;;;;;;;6491189;46;8876;-62
2022/07/14 10:24:50;;;;;;;;;7.00;7.00;;;;;;;;6490321;39;8905;-63
2022/07/14 10:31:18;;;;;;;;;6.75;4.25;;;;;;;;6491300;39;8967;-64
2022/07/14 10:37:50;;;;;;;;;23.50;22.75;;;;;;;;6490026;46;8974;-63
2022/07/14 10:44:16;;;;;;;;;38.25;36.25;;;;;;;;6490897;46;8878;-63
2022/07/14 10:50:33;;;;;;;;;3.50;3.50;;;;;;;;6489626;39;8968;-63
2022/07/14 10:56:38;;;;;;;;;2.75;2.75;;;;;;;;6490848;39;8949;-63
2022/07/14 11:02:45;;;;;;;;;7.00;4.00;;;;;;;;6489078;39;8878;-64
2022/07/14 11:09:22;;;;;;;;;4.25;4.25;;;;;;;;6488738;39;8988;-64
2022/07/14 11:15:43;;;;;;;;;5.00;5.00;;;;;;;;6489956;31;9017;-63
2022/07/14 11:22:16;;;;;;;;;4.00;2.00;;;;;;;;6489698;39;9078;-62
2022/07/14 11:28:51;;;;;;;;;4.50;3.25;;;;;;;;6490593;46;8951;-63
2022/07/14 11:41:58;;;;;;;;;6.25;5.25;;;;;;;;6491224;39;8929;-62
2022/07/14 11:48:06;;;;;;;;;5.00;5.00;;;;;;;;6492612;31;9095;-62
2022/07/14 11:54:16;;;;;;;;;5.25;4.25;;;;;;;;6492074;39;8870;-62
2022/07/14 12:00:23;;;;;;;;;17.75;16.75;;;;;;;;6490755;39;8873;-64
2022/07/14 12:06:30;;;;;;;;;3.00;3.00;;;;;;;;6491451;39;8910;-63
2022/07/14 12:12:45;;;;;;;;;5.25;5.00;;;;;;;;6490347;31;8906;-62
2022/07/14 12:19:03;;;;;;;;;4.75;3.25;;;;;;;;6491574;46;8882;-64
2022/07/14 12:25:33;;;;;;;;;3.00;3.00;;;;;;;;6489735;39;8838;-63
2022/07/14 12:31:43;;;;;;;;;6.00;6.00;;;;;;;;6491080;39;9045;-63
2022/07/14 12:37:52;;;;;;;;;3.25;3.25;;;;;;;;6491046;39;8972;-63
2022/07/14 12:44:15;;;;;;;;;4.00;4.00;;;;;;;;6491508;46;8958;-62
2022/07/14 12:50:22;;;;;;;;;5.00;5.00;;;;;;;;6490640;39;8883;-63
2022/07/14 12:56:26;;;;;;;;;5.50;4.00;;;;;;;;6490246;46;8911;-63
2022/07/14 13:02:35;;;;;;;;;6.00;4.50;;;;;;;;6491634;31;8874;-62
2022/07/14 13:08:42;;;;;;;;;8.00;5.25;;;;;;;;6490245;46;8872;-65
2022/07/14 13:14:59;;;;;;;;;4.50;4.50;;;;;;;;6488855;39;8852;-62
2022/07/14 13:21:03;;;;;;;;;4.00;4.00;;;;;;;;6488593;31;8937;-63
2022/07/14 13:27:15;;;;;;;;;5.25;5.25;;;;;;;;6489427;31;8993;-62
2022/07/14 13:33:25;;;;;;;;;3.75;3.75;;;;;;;;6489800;39;8867;-61
2022/07/14 13:39:29;;;;;;;;;4.00;4.00;;;;;;;;6487840;31;8856;-61
2022/07/14 13:45:32;;;;;;;;;4.00;4.00;;;;;;;;6490040;39;8886;-61
2022/07/14 13:58:00;;;;;;;;;2.00;2.00;;;;;;;;6490967;39;8842;-62
2022/07/14 14:04:06;;;;;;;;;4.00;4.00;;;;;;;;6490905;39;8971;-63
2022/07/14 14:10:27;;;;;;;;;7.00;7.00;;;;;;;;6490991;31;9532;-61
2022/07/14 14:16:39;;;;;;;;;4.00;4.00;;;;;;;;6492500;39;8936;-63
2022/07/14 14:29:04;;;;;;;;;3.00;3.00;;;;;;;;6490806;46;8925;-63
2022/07/14 14:35:13;;;;;;;;;3.00;2.75;;;;;;;;6489639;39;8849;-63
2022/07/14 14:41:16;;;;;;;;;4.00;4.00;;;;;;;;6488493;31;8939;-63
2022/07/14 14:47:19;;;;;;;;;3.25;2.75;;;;;;;;6488615;39;8985;-63
2022/07/14 14:53:26;;;;;;;;;5.00;5.00;;;;;;;;6488557;39;8892;-63
2022/07/14 14:59:32;;;;;;;;;4.00;4.00;;;;;;;;6487873;31;8915;-64
2022/07/14 15:05:40;;;;;;;;;5.50;5.50;;;;;;;;6487354;39;9707;-61
2022/07/14 15:11:42;;;;;;;;;3.75;3.75;;;;;;;;6486911;39;8990;-63
2022/07/14 15:17:48;;;;;;;;;3.00;3.00;;;;;;;;6486688;31;9247;-63
2022/07/14 15:23:52;;;;;;;;;3.25;3.25;;;;;;;;6487293;47;8903;-63
2022/07/14 15:29:56;;;;;;;;;2.00;2.00;;;;;;;;6488793;31;8919;-63
2022/07/14 15:35:58;;;;;;;;;4.00;3.50;;;;;;;;6486614;47;8907;-62
2022/07/14 15:42:01;;;;;;;;;4.00;4.00;;;;;;;;6487481;31;8953;-63
2022/07/14 15:48:06;;;;;;;;;18.25;18.00;;;;;;;;6488841;31;9186;-62
2022/07/14 15:54:11;;;;;;;;;26.75;26.00;;;;;;;;6486146;31;8937;-63
2022/07/14 16:00:14;;;;;;;;;12.00;11.00;;;;;;;;6486576;47;8893;-63
2022/07/14 16:06:18;;;;;;;;;5.00;5.00;;;;;;;;6487093;39;8940;-63
2022/07/14 16:12:20;;;;;;;;;4.25;3.50;;;;;;;;6487207;31;8900;-64
2022/07/14 16:18:25;;;;;;;;;6.25;5.75;;;;;;;;6488404;39;8914;-63
2022/07/14 16:24:33;;;;;;;;;3.75;3.75;;;;;;;;6489808;31;8946;-61
2022/07/14 16:30:41;;;;;;;;;9.75;8.00;;;;;;;;6488276;39;9569;-64
2022/07/14 16:36:46;;;;;;;;;9.50;8.00;;;;;;;;6488866;46;8860;-63
2022/07/14 16:42:52;;;;;;;;;5.00;4.00;;;;;;;;6489389;31;9105;-63
2022/07/14 16:48:55;;;;;;;;;5.25;3.25;;;;;;;;6490165;39;8851;-62
2022/07/14 16:55:04;;;;;;;;;5.25;5.25;;;;;;;;6489147;31;8922;-63
2022/07/14 17:01:14;;;;;;;;;5.00;5.00;;;;;;;;6489061;39;8946;-62
2022/07/14 17:07:18;;;;;;;;;4.75;4.75;;;;;;;;6490634;31;9672;-61
2022/07/14 17:13:28;;;;;;;;;6.25;6.25;;;;;;;;6487925;39;8962;-62
2022/07/14 17:19:34;;;;;;;;;5.75;5.50;;;;;;;;6486399;46;8965;-63
2022/07/14 17:25:41;;;;;;;;;7.25;6.00;;;;;;;;6488087;31;8912;-60
2022/07/14 17:31:47;;;;;;;;;9.75;9.00;;;;;;;;6488036;46;8878;-62
2022/07/14 17:37:54;;;;;;;;;8.25;8.25;;;;;;;;6487744;31;8898;-62
2022/07/14 17:43:58;;;;;;;;;7.25;7.25;;;;;;;;6488698;39;9581;-64
2022/07/14 17:50:00;;;;;;;;;8.75;8.75;;;;;;;;6488987;39;8968;-66
2022/07/14 17:56:03;;;;;;;;;7.00;7.00;;;;;;;;6487862;39;8918;-63
2022/07/14 18:02:06;;;;;;;;;7.25;6.00;;;;;;;;6489229;31;8926;-64
2022/07/14 18:08:09;;;;;;;;;8.00;8.00;;;;;;;;6488015;46;9024;-63
2022/07/14 18:14:13;;;;;;;;;8.50;8.50;;;;;;;;6488108;46;8869;-64
2022/07/14 18:20:15;;;;;;;;;8.50;8.50;;;;;;;;6489495;31;8921;-65
2022/07/14 18:26:20;;;;;;;;;11.00;9.50;;;;;;;;6492394;31;8922;-64
2022/07/14 18:32:26;;;;;;;;;16.25;15.25;;;;;;;;6488321;31;8906;-63
2022/07/14 18:38:28;;;;;;;;;14.50;13.00;;;;;;;;6486990;39;9040;-64
2022/07/14 18:50:57;;;;;;;;;10.00;9.75;;;;;;;;6487322;46;9152;-65
2022/07/14 18:57:00;;;;;;;;;10.00;10.00;;;;;;;;6487500;39;8894;-65
2022/07/14 19:03:04;;;;;;;;;11.25;11.25;;;;;;;;6487305;46;8858;-66
2022/07/14 19:09:10;;;;;;;;;10.50;10.50;;;;;;;;6487288;39;8885;-64
2022/07/14 19:15:13;;;;;;;;;13.75;13.75;;;;;;;;6486855;47;8902;-64
2022/07/14 19:21:16;;;;;;;;;14.00;10.50;;;;;;;;6487668;39;8905;-65
2022/07/14 19:27:19;;;;;;;;;12.50;12.50;;;;;;;;6486275;47;8946;-64
2022/07/14 19:33:23;;;;;;;;;11.50;11.50;;;;;;;;6487495;31;9007;-64
2022/07/14 19:39:34;;;;;;;;;13.00;13.00;;;;;;;;6487699;39;9119;-64
2022/07/14 19:45:41;;;;;;;;;11.00;11.00;;;;;;;;6488334;39;8928;-64
2022/07/14 19:51:58;;;;;;;;;12.50;9.75;;;;;;;;6491389;46;8909;-64
2022/07/14 19:58:01;;;;;;;;;10.25;9.50;;;;;;;;6489269;46;8908;-64
2022/07/14 20:04:08;;;;;;;;;11.75;11.75;;;;;;;;6488711;31;8956;-64
2022/07/14 20:10:11;;;;;;;;;9.75;9.75;;;;;;;;6489146;39;8983;-64
2022/07/14 20:16:15;;;;;;;;;8.50;8.50;;;;;;;;6488360;31;8965;-64
2022/07/14 20:22:23;;;;;;;;;11.00;11.00;;;;;;;;6488607;46;8956;-64
2022/07/14 20:34:51;;;;;;;;;12.25;10.50;;;;;;;;6488678;39;8964;-65
2022/07/14 20:40:55;;;;;;;;;12.50;12.50;;;;;;;;6489535;39;8862;-64
2022/07/14 20:47:14;;;;;;;;;8.25;7.25;;;;;;;;6488155;46;8981;-63
2022/07/14 20:53:20;;;;;;;;;11.00;11.00;;;;;;;;6488910;31;9132;-63
2022/07/14 20:59:23;;;;;;;;;10.75;9.00;;;;;;;;6488594;39;8948;-64
2022/07/14 21:05:28;;;;;;;;;9.00;9.00;;;;;;;;6489886;31;8937;-64
2022/07/14 21:11:30;;;;;;;;;9.75;9.75;;;;;;;;6491240;31;8894;-63
2022/07/14 21:17:34;;;;;;;;;14.25;10.50;;;;;;;;6490151;39;8913;-64
2022/07/14 21:23:38;;;;;;;;;10.00;10.00;;;;;;;;6488605;46;8922;-63
2022/07/14 21:29:45;;;;;;;;;9.75;9.75;;;;;;;;6488693;31;8933;-62
2022/07/14 21:35:48;;;;;;;;;14.00;13.00;;;;;;;;6487487;31;8897;-62
2022/07/14 21:41:55;;;;;;;;;12.00;12.00;;;;;;;;6488268;46;8968;-64
2022/07/14 21:48:01;;;;;;;;;11.25;11.00;;;;;;;;6488574;39;9592;-65
2022/07/14 21:54:04;;;;;;;;;12.75;12.25;;;;;;;;6487513;46;9056;-65
2022/07/14 22:00:09;;;;;;;;;16.00;12.25;;;;;;;;6488676;39;9016;-64
2022/07/14 22:06:13;;;;;;;;;11.00;9.50;;;;;;;;6488264;31;8989;-64
2022/07/14 22:12:16;;;;;;;;;12.00;12.00;;;;;;;;6487913;39;8869;-63
2022/07/14 22:18:23;;;;;;;;;13.00;10.75;;;;;;;;6487281;31;8890;-65
2022/07/14 22:24:32;;;;;;;;;12.25;12.25;;;;;;;;6487566;31;8939;-62
2022/07/14 22:30:34;;;;;;;;;16.75;15.00;;;;;;;;6487916;39;8976;-64
2022/07/14 22:36:39;;;;;;;;;16.50;15.25;;;;;;;;6488149;31;8936;-63
2022/07/14 22:42:41;;;;;;;;;9.50;9.00;;;;;;;;6493459;39;8889;-63
2022/07/14 22:48:45;;;;;;;;;14.75;13.25;;;;;;;;6489050;31;8925;-64
2022/07/14 22:54:50;;;;;;;;;11.25;10.00;;;;;;;;6487162;39;8976;-64
2022/07/14 23:00:53;;;;;;;;;12.75;12.75;;;;;;;;6488391;39;9624;-64
2022/07/14 23:06:56;;;;;;;;;9.25;9.25;;;;;;;;6488193;39;8920;-65
2022/07/14 23:13:00;;;;;;;;;15.75;15.00;;;;;;;;6487624;39;8841;-64
2022/07/14 23:19:03;;;;;;;;;11.25;10.25;;;;;;;;6487404;31;8956;-64
2022/07/14 23:25:07;;;;;;;;;13.00;13.00;;;;;;;;6487868;46;8923;-64
2022/07/14 23:31:10;;;;;;;;;16.25;16.25;;;;;;;;6490619;31;8913;-63
2022/07/14 23:37:16;;;;;;;;;15.00;14.50;;;;;;;;6489718;39;8898;-64
2022/07/14 23:43:20;;;;;;;;;15.75;13.75;;;;;;;;6490861;31;8914;-65
2022/07/14 23:49:25;;;;;;;;;11.25;10.50;;;;;;;;6489075;39;8999;-64
2022/07/14 23:55:28;;;;;;;;;13.67;13.67;;;;;;;;6490123;31;8926;-64
